Home > Products > Valid Products > TAF

000
FTUS43 KMQT 251736
TAFCMX
TAF
KCMX 251736Z 2518/2618 07004KT 6SM -SHSN OVC022
     FM252100 10003KT P6SM VCSH BKN022
     FM260000 15003KT P6SM SCT022
     FM260400 17005KT P6SM BKN200
     FM261100 18008KT P6SM VCSH OVC070
     FM261400 18009KT 1SM -SN SCT007 OVC010
     FM261700 18009KT 6SM -SN OVC008=



000
FTUS43 KMQT 251736
TAFSAW
TAF
KSAW 251736Z 2518/2618 05006KT 5SM -SHSN OVC028
     FM252200 04004KT P6SM BKN026
     FM260100 05003KT P6SM SCT026 BKN250
     FM260800 19005KT P6SM BKN070
     FM261500 19009KT 4SM -SN SCT025 OVC045
      AMD LTD TO CLD VIS AND WIND 2603/2611=



000
FTUS43 KMQT 251626 AAA
TAFSAW
TAF AMD
KSAW 251626Z 2516/2612 03009KT 6SM -SHSN OVC020
      TEMPO 2516/2518 2SM -SHSN BKN015
     FM260000 VRB03KT P6SM SCT020 SCT200
     FM260600 19005KT P6SM BKN100=



000
FTUS43 KMQT 251503 AAA
TAFCMX
TAF AMD
KCMX 251503Z 2515/2612 07007KT 5SM -SHSN OVC020
     FM251800 09005KT P6SM -SHSN OVC020
     FM252100 VRB03KT P6SM SCT020 BKN200
     FM260600 18005KT P6SM BKN100=



000
FTUS43 KMQT 251122
TAFSAW
TAF
KSAW 251122Z 2512/2612 03009KT 6SM -SHSN OVC020
     FM260000 VRB03KT P6SM SCT020 SCT200
     FM260600 19005KT P6SM BKN100=



000
FTUS43 KMQT 251122
TAFCMX
TAF
KCMX 251122Z 2512/2612 06008KT P6SM -SHSN OVC020
     FM252100 VRB03KT P6SM SCT020 BKN200
     FM260600 18005KT P6SM BKN100=



000
FTUS43 KMQT 250523
TAFSAW
TAF
KSAW 250523Z 2506/2606 02010KT 5SM -SHSN OVC020
      TEMPO 2506/2510 2SM -SHSN OVC015
     FM260000 VRB03KT P6SM SCT020=



000
FTUS43 KMQT 250523
TAFCMX
TAF
KCMX 250523Z 2506/2606 05008KT P6SM -SHSN OVC020
     FM252100 VRB03KT P6SM SCT030=



000
FTUS43 KMQT 242323 CCA
TAFSAW
TAF COR
KSAW 242323Z 2500/2524 02012KT 5SM -SHSN OVC010
      TEMPO 2500/2504 2SM -SHSN
     FM252100 02007KT P6SM OVC015=



000
FTUS43 KMQT 242321
TAFCMX
TAF
KCMX 242321Z 2500/2524 05008KT P6SM OVC015
      TEMPO 2500/2502 4SM -SHSN
     FM252100 VRB03KT P6SM SCT020=



000
FTUS43 KMQT 242321
TAFSAW
TAF
KSAW 242321Z 2500/2524 02012KT P6SM -SHSN OVC010
     FM252100 02007KT P6SM OVC015=



000
FTUS43 KMQT 241858 AAB
TAFSAW
TAF AMD
KSAW 241858Z 2419/2518 36013G20KT P6SM -FZDZSN BKN006 OVC012
     FM242000 36011G18KT 6SM -SHSN OVC008
     FM250100 36010G16KT 6SM -SN OVC008
     FM250500 02008KT 5SM -SN OVC008
      AMD LTD TO CLD VIS AND WIND 2503/2511=



000
FTUS43 KMQT 241734 AAA
TAFSAW
TAF AMD
KSAW 241734Z 2418/2518 03011G17KT 1SM -FZDZSN BKN009 OVC015
     FM242000 36011G18KT 6SM -SHSN OVC010
     FM250100 36010G16KT 6SM -SN OVC008
     FM250500 02008KT 5SM -SN OVC008
      AMD LTD TO CLD VIS AND WIND 2503/2511=



000
FTUS43 KMQT 241730
TAFCMX
TAF
KCMX 241730Z 2418/2518 01013G19KT P6SM OVC010
     FM242300 02012G19KT P6SM OVC012
     FM250200 03009KT P6SM OVC012
     FM250800 05007KT P6SM BKN012=



000
FTUS43 KMQT 241730
TAFSAW
TAF
KSAW 241730Z 2418/2518 36011G17KT 1SM -FZDZSN BKN009 OVC015
     FM242000 36011G18KT 6SM -SHSN OVC010
     FM250100 36010G16KT 6SM -SN OVC008
     FM250500 02008KT P6SM -SN OVC008
      AMD LTD TO CLD VIS AND WIND 2503/2511=



000
FTUS43 KMQT 241606 AAB
TAFSAW
TAF AMD
KSAW 241606Z 2416/2512 02012KT 5SM -SHSN BKN007 OVC012
      TEMPO 2416/2417 1SM -SHSN BKN007
     FM242200 01011KT 6SM -SHSN OVC010
     FM251000 02010KT P6SM OVC020=



000
FTUS43 KMQT 241449 AAB
TAFCMX
TAF AMD
KCMX 241449Z 2415/2512 02012G18KT 2SM -SHSN BKN007 OVC012
     FM242200 02009KT 6SM -SHSN OVC010
     FM250200 05007KT 6SM -SHSN BKN010=



000
FTUS43 KMQT 241251 AAA
TAFSAW
TAF AMD
KSAW 241251Z 2413/2512 29005KT P6SM SCT020 OVC030
      TEMPO 2413/2415 -DZSN BKN020
     FM241600 34010KT 6SM -SHSN OVC020
     FM242200 01011KT 6SM -SHSN OVC010
     FM251000 02010KT P6SM OVC020=



000
FTUS43 KMQT 241240 AAA
TAFCMX
TAF AMD
KCMX 241240Z 2413/2512 30012KT P6SM SCT015 OVC030
      TEMPO 2413/2415 5SM -DZSN BKN015
     FM241500 35012G19KT P6SM -SHSN SCT015 OVC025
     FM242100 03009KT P6SM OVC030
     FM250200 05007KT P6SM BKN015=



000
FTUS43 KMQT 241137
TAFSAW
TAF
KSAW 241137Z 2412/2512 29008KT P6SM OVC030
      TEMPO 2413/2415 BKN015
     FM241600 35012G17KT 6SM -SHSN OVC010
     FM242000 01010KT P6SM -SHSN OVC020=



000
FTUS43 KMQT 241137
TAFCMX
TAF
KCMX 241137Z 2412/2512 29011KT P6SM SCT010 OVC030
      TEMPO 2412/2414 5SM -DZSN BKN010
     FM241400 34014G20KT 6SM -SHSN OVC025
     FM242100 03009KT P6SM OVC030=



000
FTUS43 KMQT 240952 AAB
TAFCMX
TAF AMD
KCMX 240952Z 2410/2506 29011KT P6SM SCT006 OVC025
      TEMPO 2410/2412 5SM -DZSN BKN006
     FM241400 34014G20KT 6SM -SHSN OVC015
     FM242100 03009KT P6SM OVC020=



000
FTUS43 KMQT 240952 AAB
TAFCMX
TAF AMD
KCMX 240952Z 2410/2506 29011KT P6SM SCT006 OVC025
      TEMPO 2410/2412 5SM -DZSN BKN006
     FM241400 34014G20KT 6SM -SHSN OVC015
     FM242100 03009KT P6SM OVC020=



000
FTUS43 KMQT 240911 AAA
TAFCMX
TAF AMD
KCMX 240911Z 2409/2506 29014KT 5SM -FZDZSN BKN005 OVC025
     FM241400 34014G20KT 6SM -SHSN OVC015
     FM242100 03009KT P6SM OVC020=



000
FTUS43 KMQT 240520
TAFSAW
TAF
KSAW 240520Z 2406/2506 29008KT P6SM OVC030
     FM240800 29005KT P6SM OVC015
     FM241600 35012G17KT 6SM -SHSN OVC010
     FM242000 01010KT P6SM -SHSN OVC020=



000
FTUS43 KMQT 240520
TAFCMX
TAF
KCMX 240520Z 2406/2506 29014KT P6SM -SN OVC025
     FM240800 29014KT 5SM -FZDZSN OVC015
     FM241400 34014G20KT 6SM -SHSN OVC015
     FM242100 03009KT P6SM OVC020=



000
FTUS43 KMQT 232321
TAFSAW
TAF
KSAW 232321Z 2400/2424 26004KT P6SM OVC020
      TEMPO 2400/2402 -FZDZSN
     FM240800 29005KT P6SM OVC020
     FM241600 35012G17KT 5SM -SHSN OVC015=



000
FTUS43 KMQT 232321
TAFCMX
TAF
KCMX 232321Z 2400/2424 27014G22KT P6SM OVC025
     FM240200 29012KT 5SM -FZDZSN OVC015
     FM241300 33013G18KT 6SM -SHSN OVC015
     FM241900 02010KT P6SM OVC020=



000
FTUS43 KMQT 231921 AAA
TAFSAW
TAF AMD
KSAW 231921Z 2319/2418 24011G17KT P6SM OVC050
      TEMPO 2319/2321 BKN018
     FM240000 26005KT P6SM BKN018
     FM240800 30005KT P6SM OVC022
     FM240900 30005KT P6SM -FZDZ OVC022
     FM241200 32006KT P6SM -SHSN OVC020
     FM241600 34010G15KT 5SM -SHSN OVC014
      AMD LTD TO CLD VIS AND WIND 2403/2411=



000
FTUS43 KMQT 231921 AAA
TAFCMX
TAF AMD
KCMX 231921Z 2319/2418 27018G27KT P6SM OVC026
     FM232300 28012KT P6SM -DZ OVC018
     FM240200 29009KT 5SM -FZDZ OVC010
     FM240400 29009KT 5SM -FZDZSN OVC008
     FM241300 33010KT 6SM -SHSN OVC012
     FM241500 34010G16KT P6SM OVC012=



000
FTUS43 KMQT 231727
TAFCMX
TAF
KCMX 231727Z 2318/2418 26023G29KT P6SM SCT040
     FM232000 27018G24KT P6SM -DZ OVC026
     FM232300 28012KT P6SM -DZ OVC018
     FM240200 29009KT 5SM -FZDZ OVC010
     FM240400 29009KT 5SM -FZDZSN OVC008
     FM241300 33010KT 6SM -SHSN OVC012
     FM241500 34010G16KT P6SM OVC012=



000
FTUS43 KMQT 231727
TAFSAW
TAF
KSAW 231727Z 2318/2418 24011G17KT P6SM OVC050
     FM240000 26005KT P6SM BKN018
     FM240800 30005KT P6SM OVC022
     FM240900 30005KT P6SM -FZDZ OVC022
     FM241200 32006KT P6SM -SHSN OVC020
     FM241600 34010G15KT 5SM -SHSN OVC014
      AMD LTD TO CLD VIS AND WIND 2403/2411=



000
FTUS43 KMQT 231532 AAA
TAFSAW
TAF AMD
KSAW 231532Z 2316/2412 23014G23KT 6SM -FZRASN OVC040
     FM231700 24011G18KT P6SM BKN050
     FM232300 27006KT P6SM BKN030
     FM240500 29005KT P6SM OVC025
     FM240900 30005KT P6SM -FZDZSN OVC020=



000
FTUS43 KMQT 231531 AAA
TAFCMX
TAF AMD
KCMX 231531Z 2316/2412 26020G30KT P6SM OVC050
     FM232000 27014G21KT P6SM -DZ OVC020
     FM240000 28012KT 6SM -DZ OVC010
     FM240300 29010KT 4SM -FZDZSN OVC008
     FM241000 33011KT 5SM -FZDZSN OVC008=



000
FTUS43 KMQT 231146 CCA
TAFSAW
TAF COR
KSAW 231146Z 2312/2412 23014G22KT P6SM -SN OVC045 WS010/24040KT
     FM231500 23014G23KT 6SM -FZRASN OVC040
     FM231700 24011G18KT P6SM BKN050
     FM232300 27006KT P6SM BKN030
     FM240500 29005KT P6SM OVC025
     FM240900 30005KT P6SM -FZDZSN OVC020=



000
FTUS43 KMQT 231136
TAFSAW
TAF
KSAW 231136Z 2312/2412 23014G22KT P6SM -SN OVC045
     FM231500 23014G23KT 6SM -FZRASN OVC040
     FM231700 24011G18KT P6SM BKN050
     FM232300 27006KT P6SM BKN030
     FM240500 29005KT P6SM OVC025
     FM240900 30005KT P6SM -FZDZSN OVC020=



000
FTUS43 KMQT 231136
TAFCMX
TAF
KCMX 231136Z 2312/2412 24018G30KT 6SM -SNPL BLSN OVC040
      TEMPO 2313/2315 6SM -SNPL BKN030
     FM231600 26016G26KT P6SM OVC040
     FM232000 27014G21KT P6SM -DZ OVC020
     FM240000 28012KT 6SM -DZ OVC010
     FM240300 29010KT 4SM -FZDZSN OVC008
     FM241000 33011KT 5SM -FZDZSN OVC008=



000
FTUS43 KMQT 230522
TAFSAW
TAF
KSAW 230522Z 2306/2406 21013G18KT P6SM SCT010 BKN120 WS010/24040KT
      TEMPO 2306/2310 BKN010
     FM231300 22014G19KT 6SM -SNPL OVC035 WS010/24040KT
     FM231500 22014G19KT 6SM -FZRASNPL OVC025 WS010/25040KT
     FM231700 23013G18KT P6SM OVC020
     FM232000 25011KT P6SM OVC015
     FM240100 27005KT P6SM OVC010
      AMD LTD TO CLD VIS AND WIND TIL 231100=



000
FTUS43 KMQT 230522
TAFCMX
TAF
KCMX 230522Z 2306/2406 24015KT P6SM BKN100 WS010/24040KT
     FM230900 24015KT 6SM -SNPL OVC035 WS010/25040KT
     FM231100 24015KT 6SM -SNPL OVC025 WS010/25040KT
     FM231400 26018G25KT P6SM OVC015
     FM231900 27016G22KT 6SM -DZ OVC007
     FM232300 29011KT 6SM -FZDZ OVC007=



000
FTUS43 KMQT 222338
TAFCMX
TAF
KCMX 222338Z 2300/2324 22011KT P6SM BKN100 WS010/23035KT
     FM230900 24014KT 6SM -SN BLSN OVC035 WS010/25040KT
     FM231400 26017G24KT P6SM OVC020
     FM231700 27017G24KT P6SM -FZDZ OVC007=



000
FTUS43 KMQT 222338
TAFSAW
TAF
KSAW 222338Z 2300/2324 21011KT P6SM BKN150
     FM230200 21013G18KT P6SM BKN120 WS010/24040KT
     FM231200 23014G19KT P6SM -FZRASN OVC035 WS010/25040KT
     FM231600 24010G16KT P6SM OVC020
     FM232000 25010KT P6SM OVC015
      AMD LTD TO CLD VIS AND WIND 2303/2311=



    US Dept of Commerce
    National Oceanic and Atmospheric Administration
    National Weather Service
    1325 East West Highway
    Silver Spring, MD 20910
    Page Author: NWS Internet Services Team
Disclaimer
Information Quality
Credits
Glossary
Privacy Policy
Freedom of Information Act (FOIA)
About Us
Career Opportunities